Time;durP1;ratioP1;P1;durP2;ratioP2;P2;SDS_P1;SDS_P2;PMS_P1;PMS_P2;Temp;Humidity;BMP_temperature;BMP_pressure;BME280_temperature;BME280_humidity;BME280_pressure;Samples;Min_cycle;Max_cycle;Signal;HPM_P1;HPM_P2
2022/06/26 00:01:14;;;;;;;3.37;2.00;;;;;;;;;;4390053;32;20308;-63
2022/06/26 00:03:40;;;;;;;7.87;2.22;;;;;;;;;;4391032;32;20371;-62
2022/06/26 00:06:05;;;;;;;6.10;2.17;;;;;;;;;;4391688;32;20324;-62
2022/06/26 00:08:31;;;;;;;5.22;2.03;;;;;;;;;;4391314;32;20202;-63
2022/06/26 00:10:56;;;;;;;3.05;1.70;;;;;;;;;;4391004;32;20236;-62
2022/06/26 00:13:22;;;;;;;6.35;1.85;;;;;;;;;;4390983;32;20241;-63
2022/06/26 00:15:48;;;;;;;17.10;2.60;;;;;;;;;;4391447;32;20214;-63
2022/06/26 00:18:14;;;;;;;6.47;2.10;;;;;;;;;;4390748;32;20259;-63
2022/06/26 00:20:40;;;;;;;2.40;1.80;;;;;;;;;;4392205;32;20595;-64
2022/06/26 00:23:06;;;;;;;12.55;3.28;;;;;;;;;;4406078;32;20694;-64
2022/06/26 00:25:32;;;;;;;8.13;3.10;;;;;;;;;;4406057;32;20256;-59
2022/06/26 00:27:57;;;;;;;6.32;2.75;;;;;;;;;;4405932;32;20275;-60
2022/06/26 00:30:23;;;;;;;3.28;1.80;;;;;;;;;;4405868;32;20259;-60
2022/06/26 00:32:48;;;;;;;7.00;2.05;;;;;;;;;;4406051;32;20218;-60
2022/06/26 00:35:14;;;;;;;4.37;1.83;;;;;;;;;;4406074;32;20266;-61
2022/06/26 00:37:40;;;;;;;14.38;2.60;;;;;;;;;;4405637;32;20284;-61
2022/06/26 00:40:06;;;;;;;5.25;1.70;;;;;;;;;;4406120;32;20200;-61
2022/06/26 00:42:32;;;;;;;8.38;2.00;;;;;;;;;;4405848;32;20218;-59
2022/06/26 00:44:57;;;;;;;3.90;2.03;;;;;;;;;;4405858;32;20201;-60
2022/06/26 00:47:23;;;;;;;4.57;2.05;;;;;;;;;;4405723;32;20322;-60
2022/06/26 00:49:49;;;;;;;9.18;2.33;;;;;;;;;;4406047;32;20213;-60
2022/06/26 00:52:17;;;;;;;6.35;1.80;;;;;;;;;;4405353;32;20252;-60
2022/06/26 00:54:43;;;;;;;7.12;2.60;;;;;;;;;;4402206;32;20289;-61
2022/06/26 00:57:09;;;;;;;11.00;5.00;;;;;;;;;;4390511;32;20289;-61
2022/06/26 00:59:36;;;;;;;12.68;6.12;;;;;;;;;;4390417;32;20217;-61
2022/06/26 01:02:02;;;;;;;11.32;6.10;;;;;;;;;;4390240;32;20309;-60
2022/06/26 01:04:27;;;;;;;10.82;6.60;;;;;;;;;;4390264;32;20566;-60
2022/06/26 01:06:53;;;;;;;14.13;6.18;;;;;;;;;;4390161;32;20310;-60
2022/06/26 01:09:19;;;;;;;4.82;3.70;;;;;;;;;;4390327;32;20677;-61
2022/06/26 01:11:46;;;;;;;17.35;4.22;;;;;;;;;;4388930;32;20245;-62
2022/06/26 01:14:12;;;;;;;11.40;3.10;;;;;;;;;;4390125;32;20308;-62
2022/06/26 01:16:39;;;;;;;9.65;3.50;;;;;;;;;;4389955;32;20385;-62
2022/06/26 01:19:06;;;;;;;5.05;3.50;;;;;;;;;;4389976;32;20335;-61
2022/06/26 01:21:34;;;;;;;8.55;3.45;;;;;;;;;;4390102;32;20239;-61
2022/06/26 01:24:00;;;;;;;10.23;4.75;;;;;;;;;;4390061;32;20210;-61
2022/06/26 01:26:26;;;;;;;8.45;3.62;;;;;;;;;;4390249;32;20580;-61
2022/06/26 01:28:52;;;;;;;3.85;2.12;;;;;;;;;;4390152;32;20206;-62
2022/06/26 01:31:19;;;;;;;13.77;2.55;;;;;;;;;;4388553;32;20252;-62
2022/06/26 01:33:46;;;;;;;2.60;2.00;;;;;;;;;;4389305;32;20244;-61
2022/06/26 01:36:11;;;;;;;9.45;2.20;;;;;;;;;;4390404;32;20361;-62
2022/06/26 01:38:37;;;;;;;2.47;1.90;;;;;;;;;;4405458;32;20614;-61
2022/06/26 01:41:02;;;;;;;4.22;2.05;;;;;;;;;;4405182;32;20235;-59
2022/06/26 01:43:31;;;;;;;12.23;2.15;;;;;;;;;;4405021;32;20273;-61
2022/06/26 01:45:57;;;;;;;9.57;2.25;;;;;;;;;;4405123;32;20268;-60
2022/06/26 01:48:27;;;;;;;5.07;1.48;;;;;;;;;;4404506;32;20324;-61
2022/06/26 01:50:54;;;;;;;2.67;1.50;;;;;;;;;;4401297;32;20257;-61
2022/06/26 01:53:20;;;;;;;3.12;1.67;;;;;;;;;;4389618;32;20383;-61
2022/06/26 01:55:46;;;;;;;9.63;2.15;;;;;;;;;;4389829;32;20217;-60
2022/06/26 01:58:13;;;;;;;4.32;1.42;;;;;;;;;;4389536;32;20547;-59
2022/06/26 02:00:41;;;;;;;3.12;1.77;;;;;;;;;;4389599;32;20677;-60
2022/06/26 02:03:08;;;;;;;11.43;2.55;;;;;;;;;;4388901;32;20218;-61
2022/06/26 02:05:34;;;;;;;3.62;1.70;;;;;;;;;;4389325;32;20240;-63
2022/06/26 02:07:59;;;;;;;5.45;2.33;;;;;;;;;;4389371;32;20237;-63
2022/06/26 02:15:57;;;;;;;3.08;2.30;;;;;;;;;;4389126;32;20304;-62
2022/06/26 02:18:23;;;;;;;7.95;2.30;;;;;;;;;;4388671;32;20209;-61
2022/06/26 02:20:49;;;;;;;7.43;3.55;;;;;;;;;;4391239;32;20296;-63
2022/06/26 02:23:15;;;;;;;13.15;3.62;;;;;;;;;;4402780;32;20240;-63
2022/06/26 02:25:41;;;;;;;6.70;3.12;;;;;;;;;;4403984;32;20288;-63
2022/06/26 02:28:07;;;;;;;4.78;2.50;;;;;;;;;;4404039;32;20718;-64
2022/06/26 02:30:33;;;;;;;3.85;1.92;;;;;;;;;;4403949;32;20213;-64
2022/06/26 02:32:58;;;;;;;9.57;1.90;;;;;;;;;;4403643;32;20225;-64
2022/06/26 02:35:25;;;;;;;4.37;2.20;;;;;;;;;;4403771;32;20518;-63
2022/06/26 02:37:52;;;;;;;2.97;2.00;;;;;;;;;;4402196;32;20301;-64
2022/06/26 02:40:20;;;;;;;4.00;2.37;;;;;;;;;;4403763;32;20573;-64
2022/06/26 02:42:45;;;;;;;8.27;1.90;;;;;;;;;;4403108;32;20757;-64
2022/06/26 02:45:12;;;;;;;5.75;2.20;;;;;;;;;;4404017;32;20224;-65
2022/06/26 02:47:38;;;;;;;6.68;2.70;;;;;;;;;;4396214;32;20284;-63
2022/06/26 02:50:04;;;;;;;11.38;2.47;;;;;;;;;;4388660;32;20233;-64
2022/06/26 02:52:30;;;;;;;5.22;1.80;;;;;;;;;;4388284;32;20344;-61
2022/06/26 02:54:56;;;;;;;10.55;2.17;;;;;;;;;;4388476;32;20595;-60
2022/06/26 02:57:21;;;;;;;6.10;2.00;;;;;;;;;;4388424;32;20340;-60
2022/06/26 02:59:47;;;;;;;6.70;2.47;;;;;;;;;;4388499;32;20214;-60
2022/06/26 03:02:12;;;;;;;5.55;2.10;;;;;;;;;;4387529;32;20257;-61
2022/06/26 03:04:38;;;;;;;6.93;2.33;;;;;;;;;;4388400;32;20267;-62
2022/06/26 03:07:03;;;;;;;7.40;2.65;;;;;;;;;;4388009;32;20731;-61
2022/06/26 03:09:29;;;;;;;14.55;2.75;;;;;;;;;;4386945;32;20225;-62
2022/06/26 03:11:55;;;;;;;4.57;1.67;;;;;;;;;;4388182;32;20230;-62
2022/06/26 03:14:20;;;;;;;8.30;2.12;;;;;;;;;;4388213;32;20672;-62
2022/06/26 03:16:46;;;;;;;5.82;2.33;;;;;;;;;;4388167;32;20364;-62
2022/06/26 03:19:11;;;;;;;5.87;2.28;;;;;;;;;;4386928;32;20222;-61
2022/06/26 03:21:37;;;;;;;2.85;1.55;;;;;;;;;;4387714;32;20229;-61
2022/06/26 03:24:03;;;;;;;4.03;2.37;;;;;;;;;;4388040;32;20236;-60
2022/06/26 03:26:30;;;;;;;6.85;2.05;;;;;;;;;;4387905;32;20234;-62
2022/06/26 03:28:56;;;;;;;2.08;1.62;;;;;;;;;;4386690;32;20630;-61
2022/06/26 03:31:21;;;;;;;5.22;2.33;;;;;;;;;;4399163;32;20268;-60
2022/06/26 03:33:47;;;;;;;13.85;3.97;;;;;;;;;;4399185;32;20233;-62
2022/06/26 03:36:12;;;;;;;8.68;4.65;;;;;;;;;;4388370;32;20234;-64
2022/06/26 03:38:38;;;;;;;7.35;5.03;;;;;;;;;;4403113;32;20213;-60
2022/06/26 03:41:04;;;;;;;9.95;5.57;;;;;;;;;;4402927;32;20295;-60
2022/06/26 03:43:29;;;;;;;9.18;5.15;;;;;;;;;;4399655;32;20217;-58
2022/06/26 03:45:55;;;;;;;12.37;9.20;;;;;;;;;;4387967;32;20228;-59
2022/06/26 03:48:20;;;;;;;25.60;17.02;;;;;;;;;;4387675;32;20242;-62
2022/06/26 03:50:46;;;;;;;34.60;19.10;;;;;;;;;;4398924;32;20241;-62
2022/06/26 03:53:12;;;;;;;23.83;14.25;;;;;;;;;;4387672;32;20654;-61
2022/06/26 03:55:38;;;;;;;13.32;9.48;;;;;;;;;;4387769;32;20213;-60
2022/06/26 03:58:04;;;;;;;17.40;9.15;;;;;;;;;;4387921;32;20712;-62
2022/06/26 04:00:30;;;;;;;22.65;3.85;;;;;;;;;;4387820;32;20253;-60
2022/06/26 04:02:56;;;;;;;7.35;2.65;;;;;;;;;;4387574;32;20268;-61
2022/06/26 04:05:22;;;;;;;2.97;2.08;;;;;;;;;;4387682;32;20205;-61
2022/06/26 04:07:47;;;;;;;3.17;1.83;;;;;;;;;;4387838;32;20234;-63
2022/06/26 04:10:13;;;;;;;3.58;1.33;;;;;;;;;;4387684;32;20244;-61
2022/06/26 04:12:39;;;;;;;5.57;1.62;;;;;;;;;;4388641;32;20633;-59
2022/06/26 04:15:05;;;;;;;2.65;1.55;;;;;;;;;;4390226;32;20645;-60
2022/06/26 04:17:31;;;;;;;5.90;1.85;;;;;;;;;;4389920;32;20332;-61
2022/06/26 04:19:56;;;;;;;4.32;1.70;;;;;;;;;;4389988;32;20602;-61
2022/06/26 04:22:22;;;;;;;7.53;1.65;;;;;;;;;;4401914;32;20290;-60
2022/06/26 04:24:48;;;;;;;5.28;1.70;;;;;;;;;;4405242;32;20209;-60
2022/06/26 04:27:13;;;;;;;2.65;1.08;;;;;;;;;;4405094;32;20259;-61
2022/06/26 04:29:39;;;;;;;6.43;1.95;;;;;;;;;;4404032;32;20225;-61
2022/06/26 04:32:04;;;;;;;4.97;2.00;;;;;;;;;;4403488;32;20232;-61
2022/06/26 04:34:30;;;;;;;3.90;1.40;;;;;;;;;;4405284;32;20398;-62
2022/06/26 04:36:55;;;;;;;4.43;1.83;;;;;;;;;;4404873;32;20310;-61
2022/06/26 04:39:21;;;;;;;10.90;2.58;;;;;;;;;;4403856;32;20535;-58
2022/06/26 04:41:47;;;;;;;8.80;2.22;;;;;;;;;;4390240;32;20230;-60
2022/06/26 04:44:13;;;;;;;12.15;2.92;;;;;;;;;;4401034;32;20677;-59
2022/06/26 04:46:40;;;;;;;7.37;2.35;;;;;;;;;;4388492;32;20307;-62
2022/06/26 04:49:06;;;;;;;5.90;2.85;;;;;;;;;;4397434;32;20554;-62
2022/06/26 04:51:35;;;;;;;7.87;2.17;;;;;;;;;;4402720;32;20290;-62
2022/06/26 04:54:01;;;;;;;8.70;2.20;;;;;;;;;;4404411;32;20217;-61
2022/06/26 04:56:27;;;;;;;4.15;1.67;;;;;;;;;;4404184;32;20213;-61
2022/06/26 04:58:53;;;;;;;2.28;2.00;;;;;;;;;;4404603;32;20224;-60
2022/06/26 05:01:19;;;;;;;9.93;3.70;;;;;;;;;;4404308;32;20272;-61
2022/06/26 05:03:44;;;;;;;4.93;2.85;;;;;;;;;;4404453;32;20213;-61
2022/06/26 05:06:10;;;;;;;9.07;4.18;;;;;;;;;;4404549;32;20352;-62
2022/06/26 05:08:35;;;;;;;5.03;3.10;;;;;;;;;;4405060;32;20512;-57
2022/06/26 05:11:01;;;;;;;10.40;2.92;;;;;;;;;;4404436;32;20224;-57
2022/06/26 05:13:26;;;;;;;9.23;3.45;;;;;;;;;;4404650;32;20213;-57
2022/06/26 05:15:52;;;;;;;9.45;4.10;;;;;;;;;;4404644;32;20232;-61
2022/06/26 05:18:18;;;;;;;14.05;4.28;;;;;;;;;;4404675;32;20213;-58
2022/06/26 05:20:44;;;;;;;6.18;3.05;;;;;;;;;;4403146;32;20225;-59
2022/06/26 05:23:11;;;;;;;15.23;2.83;;;;;;;;;;4403738;32;20324;-61
2022/06/26 05:25:37;;;;;;;4.72;3.17;;;;;;;;;;4402699;32;20264;-59
2022/06/26 05:28:03;;;;;;;6.55;2.50;;;;;;;;;;4404345;32;20661;-59
2022/06/26 05:30:29;;;;;;;4.05;2.25;;;;;;;;;;4404199;32;20209;-59
2022/06/26 05:32:54;;;;;;;4.20;1.98;;;;;;;;;;4404037;32;20750;-59
2022/06/26 05:35:19;;;;;;;4.97;2.25;;;;;;;;;;4403443;32;20307;-60
2022/06/26 05:37:45;;;;;;;6.40;2.10;;;;;;;;;;4400104;32;20271;-59
2022/06/26 05:40:11;;;;;;;8.35;2.35;;;;;;;;;;4386745;32;20299;-59
2022/06/26 05:42:36;;;;;;;6.03;2.40;;;;;;;;;;4389049;32;20590;-59
2022/06/26 05:45:02;;;;;;;4.90;2.58;;;;;;;;;;4388874;32;20618;-59
2022/06/26 05:47:28;;;;;;;3.00;1.90;;;;;;;;;;4388590;32;20371;-59
2022/06/26 05:49:53;;;;;;;4.03;2.25;;;;;;;;;;4387587;32;20213;-59
2022/06/26 05:52:19;;;;;;;6.70;2.33;;;;;;;;;;4387460;32;20274;-58
2022/06/26 05:54:44;;;;;;;6.75;2.30;;;;;;;;;;4388911;32;20229;-58
2022/06/26 05:57:09;;;;;;;6.43;1.90;;;;;;;;;;4388707;32;20712;-58
2022/06/26 05:59:35;;;;;;;2.45;1.65;;;;;;;;;;4387255;32;20206;-58
2022/06/26 06:02:00;;;;;;;12.05;1.67;;;;;;;;;;4388241;32;20646;-58
2022/06/26 06:04:26;;;;;;;4.25;2.20;;;;;;;;;;4388744;32;20275;-59
2022/06/26 06:06:52;;;;;;;8.68;2.40;;;;;;;;;;4388609;32;20293;-59
2022/06/26 06:09:17;;;;;;;2.45;1.87;;;;;;;;;;4389097;32;20201;-58
2022/06/26 06:11:43;;;;;;;5.05;2.03;;;;;;;;;;4388545;32;20264;-58
2022/06/26 06:14:08;;;;;;;4.85;2.72;;;;;;;;;;4388724;32;20206;-59
2022/06/26 06:16:34;;;;;;;6.82;1.98;;;;;;;;;;4388642;32;20286;-59
2022/06/26 06:18:59;;;;;;;10.52;5.68;;;;;;;;;;4388984;32;20206;-59
2022/06/26 06:21:25;;;;;;;7.50;3.75;;;;;;;;;;4388619;32;20276;-59
2022/06/26 06:23:50;;;;;;;5.62;2.33;;;;;;;;;;4388592;32;20729;-59
2022/06/26 06:26:16;;;;;;;7.20;3.35;;;;;;;;;;4400164;32;20264;-59
2022/06/26 06:28:41;;;;;;;4.47;2.10;;;;;;;;;;4389003;32;20240;-59
2022/06/26 06:31:07;;;;;;;3.25;2.20;;;;;;;;;;4386997;32;20316;-58
2022/06/26 06:33:32;;;;;;;9.95;3.78;;;;;;;;;;4388663;32;20225;-58
2022/06/26 06:35:58;;;;;;;7.28;3.55;;;;;;;;;;4388463;32;20319;-58
2022/06/26 06:38:23;;;;;;;8.63;3.53;;;;;;;;;;4403127;32;20234;-58
2022/06/26 06:40:49;;;;;;;8.93;3.00;;;;;;;;;;4404313;32;20209;-58
2022/06/26 06:43:15;;;;;;;3.00;2.42;;;;;;;;;;4403941;32;20319;-59
2022/06/26 06:45:40;;;;;;;3.85;2.28;;;;;;;;;;4403551;32;20296;-59
2022/06/26 06:48:06;;;;;;;11.18;3.95;;;;;;;;;;4403529;32;20248;-59
2022/06/26 06:50:32;;;;;;;2.80;2.08;;;;;;;;;;4403981;32;20696;-59
2022/06/26 06:52:58;;;;;;;7.12;3.50;;;;;;;;;;4403460;32;20323;-59
2022/06/26 06:55:23;;;;;;;14.98;3.10;;;;;;;;;;4404018;32;20205;-59
2022/06/26 06:57:49;;;;;;;10.80;2.55;;;;;;;;;;4402531;32;20233;-59
2022/06/26 07:00:15;;;;;;;3.60;2.30;;;;;;;;;;4403889;32;20235;-59
2022/06/26 07:02:40;;;;;;;4.35;2.12;;;;;;;;;;4403681;32;20238;-60
2022/06/26 07:05:08;;;;;;;3.37;2.47;;;;;;;;;;4403561;32;20209;-58
2022/06/26 07:07:35;;;;;;;4.22;2.35;;;;;;;;;;4403785;32;20643;-59
2022/06/26 07:10:02;;;;;;;4.12;1.87;;;;;;;;;;4403989;32;20471;-59
2022/06/26 07:12:27;;;;;;;4.25;1.83;;;;;;;;;;4403714;32;20347;-57
2022/06/26 07:14:53;;;;;;;3.97;2.70;;;;;;;;;;4402391;32;20253;-58
2022/06/26 07:17:21;;;;;;;6.10;2.55;;;;;;;;;;4402940;32;20641;-57
2022/06/26 07:19:46;;;;;;;4.25;2.45;;;;;;;;;;4403114;32;20240;-58
2022/06/26 07:22:12;;;;;;;8.30;2.30;;;;;;;;;;4403677;32;20230;-58
2022/06/26 07:24:39;;;;;;;6.75;2.45;;;;;;;;;;4402374;32;21143;-59
2022/06/26 07:27:05;;;;;;;3.17;2.15;;;;;;;;;;4403465;32;20275;-58
2022/06/26 07:29:31;;;;;;;6.00;2.05;;;;;;;;;;4402403;32;20327;-58
2022/06/26 07:31:56;;;;;;;7.85;2.12;;;;;;;;;;4402617;32;20225;-58
2022/06/26 07:34:23;;;;;;;3.05;1.62;;;;;;;;;;4403254;32;20259;-58
2022/06/26 07:36:50;;;;;;;4.62;1.42;;;;;;;;;;4403156;32;20703;-58
2022/06/26 07:39:18;;;;;;;4.65;1.95;;;;;;;;;;4403789;32;20214;-59
2022/06/26 07:41:45;;;;;;;6.43;2.08;;;;;;;;;;4403258;32;20238;-58
2022/06/26 07:44:11;;;;;;;5.10;1.98;;;;;;;;;;4403916;32;20332;-58
2022/06/26 07:46:38;;;;;;;2.97;1.65;;;;;;;;;;4403166;32;20378;-59
2022/06/26 07:49:05;;;;;;;5.20;2.12;;;;;;;;;;4399323;32;20409;-59
2022/06/26 07:51:31;;;;;;;8.88;2.00;;;;;;;;;;4390988;32;20325;-58
2022/06/26 07:53:57;;;;;;;6.43;1.70;;;;;;;;;;4390058;32;20335;-58
2022/06/26 07:56:25;;;;;;;3.05;1.85;;;;;;;;;;4395008;32;20221;-58
2022/06/26 07:58:54;;;;;;;5.30;2.10;;;;;;;;;;4405877;32;20675;-58
2022/06/26 08:01:20;;;;;;;3.67;1.50;;;;;;;;;;4405746;32;20225;-58
2022/06/26 08:03:45;;;;;;;5.65;2.33;;;;;;;;;;4405893;32;20318;-58
2022/06/26 08:06:11;;;;;;;5.57;2.10;;;;;;;;;;4406017;32;20233;-59
2022/06/26 08:08:37;;;;;;;1.62;1.27;;;;;;;;;;4404658;32;20578;-58
2022/06/26 08:11:03;;;;;;;4.53;1.73;;;;;;;;;;4405980;32;20243;-58
2022/06/26 08:13:29;;;;;;;8.30;2.08;;;;;;;;;;4406298;32;20280;-58
2022/06/26 08:15:56;;;;;;;4.28;2.30;;;;;;;;;;4405675;32;20685;-58
2022/06/26 08:18:21;;;;;;;11.32;2.15;;;;;;;;;;4405503;32;20266;-58
2022/06/26 08:20:47;;;;;;;4.72;1.67;;;;;;;;;;4405778;32;20214;-58
2022/06/26 08:23:12;;;;;;;3.97;1.48;;;;;;;;;;4405749;32;20319;-58
2022/06/26 08:25:38;;;;;;;5.93;1.50;;;;;;;;;;4404476;32;20283;-58
2022/06/26 08:28:04;;;;;;;3.90;1.02;;;;;;;;;;4405809;32;20252;-58
2022/06/26 08:30:29;;;;;;;2.45;1.17;;;;;;;;;;4405449;32;20259;-58
2022/06/26 08:32:58;;;;;;;2.90;1.48;;;;;;;;;;4405449;32;20233;-59
2022/06/26 08:35:25;;;;;;;4.25;1.33;;;;;;;;;;4403915;32;20327;-58
2022/06/26 08:37:51;;;;;;;6.68;1.30;;;;;;;;;;4404409;32;20335;-58
2022/06/26 08:40:16;;;;;;;4.80;1.73;;;;;;;;;;4405728;32;20256;-58
2022/06/26 08:42:42;;;;;;;2.22;1.20;;;;;;;;;;4405522;32;20670;-59
2022/06/26 08:45:08;;;;;;;1.73;0.90;;;;;;;;;;4399879;32;20310;-58
2022/06/26 08:47:39;;;;;;;7.00;2.00;;;;;;;;;;4390393;32;20260;-59
2022/06/26 08:50:06;;;;;;;4.82;2.00;;;;;;;;;;4390077;32;20439;-59
2022/06/26 08:52:32;;;;;;;2.75;1.48;;;;;;;;;;4389982;32;20225;-58
2022/06/26 08:54:58;;;;;;;3.95;1.40;;;;;;;;;;4389318;32;20198;-58
2022/06/26 08:57:24;;;;;;;6.00;1.40;;;;;;;;;;4388499;32;20233;-58
2022/06/26 08:59:50;;;;;;;2.50;1.10;;;;;;;;;;4388275;32;20614;-58
2022/06/26 09:02:15;;;;;;;8.38;2.12;;;;;;;;;;4388376;32;20579;-58
2022/06/26 09:04:41;;;;;;;6.78;1.50;;;;;;;;;;4388712;32;20236;-58
2022/06/26 09:07:07;;;;;;;4.00;1.80;;;;;;;;;;4400502;32;20304;-58
2022/06/26 09:09:35;;;;;;;5.87;1.73;;;;;;;;;;4390375;32;20592;-58
2022/06/26 09:12:01;;;;;;;7.95;2.22;;;;;;;;;;4401752;32;20666;-59
2022/06/26 09:14:28;;;;;;;3.08;1.30;;;;;;;;;;4390621;32;20281;-58
2022/06/26 09:16:56;;;;;;;7.35;1.73;;;;;;;;;;4389917;32;20295;-59
2022/06/26 09:19:24;;;;;;;4.00;1.92;;;;;;;;;;4390498;32;20277;-59
2022/06/26 09:21:51;;;;;;;3.20;1.48;;;;;;;;;;4390220;32;20347;-59
2022/06/26 09:24:21;;;;;;;3.72;1.25;;;;;;;;;;4390196;32;20198;-59
2022/06/26 09:27:14;;;;;;;7.75;1.62;;;;;;;;;;4401537;32;20320;-59
2022/06/26 09:29:40;;;;;;;3.35;1.52;;;;;;;;;;4389786;32;20229;-57
2022/06/26 09:32:12;;;;;;;7.28;1.87;;;;;;;;;;4389667;32;20594;-58
2022/06/26 09:34:37;;;;;;;6.47;1.90;;;;;;;;;;4389834;32;20675;-59
2022/06/26 09:37:06;;;;;;;4.70;1.50;;;;;;;;;;4396000;32;20244;-59
2022/06/26 09:39:33;;;;;;;2.80;1.37;;;;;;;;;;4404975;32;20287;-59
2022/06/26 09:42:16;;;;;;;3.30;1.05;;;;;;;;;;4397010;32;20688;-59
2022/06/26 09:44:46;;;;;;;3.70;1.37;;;;;;;;;;4388314;32;20272;-59
2022/06/26 09:47:27;;;;;;;3.85;1.50;;;;;;;;;;4388589;32;20256;-59
2022/06/26 09:49:55;;;;;;;4.25;1.25;;;;;;;;;;4390114;32;20213;-58
2022/06/26 09:52:26;;;;;;;3.97;1.58;;;;;;;;;;4389838;32;20300;-60
2022/06/26 09:54:53;;;;;;;7.03;1.60;;;;;;;;;;4388596;32;20719;-59
2022/06/26 09:57:19;;;;;;;13.57;1.70;;;;;;;;;;4399446;32;20225;-58
2022/06/26 09:59:45;;;;;;;5.60;1.58;;;;;;;;;;4404521;32;20206;-59
2022/06/26 10:07:54;;;;;;;5.22;1.40;;;;;;;;;;4404349;32;20286;-59
2022/06/26 10:10:22;;;;;;;5.53;1.55;;;;;;;;;;4404107;32;20322;-59
2022/06/26 10:12:52;;;;;;;6.60;1.12;;;;;;;;;;4404747;32;20389;-58
2022/06/26 10:15:20;;;;;;;3.10;1.25;;;;;;;;;;4403579;32;20241;-58
2022/06/26 10:18:07;;;;;;;2.70;1.10;;;;;;;;;;4404554;32;20594;-59
2022/06/26 10:20:34;;;;;;;3.30;1.50;;;;;;;;;;4402949;32;20248;-58
2022/06/26 10:22:59;;;;;;;6.60;1.17;;;;;;;;;;4403776;32;20299;-59
2022/06/26 10:25:27;;;;;;;3.35;1.10;;;;;;;;;;4402505;32;20244;-58
2022/06/26 10:27:53;;;;;;;2.78;1.52;;;;;;;;;;4402742;32;20267;-59
2022/06/26 10:30:21;;;;;;;4.40;1.55;;;;;;;;;;4403284;32;20547;-59
2022/06/26 10:33:09;;;;;;;6.12;1.77;;;;;;;;;;4403472;32;20288;-59
2022/06/26 10:35:40;;;;;;;3.15;1.20;;;;;;;;;;4404041;32;20626;-59
2022/06/26 10:38:27;;;;;;;6.15;1.92;;;;;;;;;;4403768;32;20628;-59
2022/06/26 10:44:07;;;;;;;4.25;1.42;;;;;;;;;;4404113;32;20281;-58
2022/06/26 10:46:45;;;;;;;3.20;1.40;;;;;;;;;;4402518;32;20225;-58
2022/06/26 10:49:11;;;;;;;3.55;1.45;;;;;;;;;;4404947;32;20284;-58
2022/06/26 10:51:42;;;;;;;4.28;1.70;;;;;;;;;;4404364;32;20245;-59
2022/06/26 10:54:24;;;;;;;7.07;3.00;;;;;;;;;;4403745;32;20298;-58
2022/06/26 10:57:25;;;;;;;3.67;1.77;;;;;;;;;;4403794;32;20692;-57
2022/06/26 10:59:50;;;;;;;1.58;1.17;;;;;;;;;;4403101;32;20725;-59
2022/06/26 11:02:16;;;;;;;5.55;1.37;;;;;;;;;;4403783;32;20226;-58
2022/06/26 11:04:49;;;;;;;2.70;1.48;;;;;;;;;;4403546;32;20225;-58
2022/06/26 11:07:18;;;;;;;2.33;1.62;;;;;;;;;;4402156;32;20446;-59
2022/06/26 11:09:44;;;;;;;4.62;1.48;;;;;;;;;;4402094;32;20260;-58
2022/06/26 11:12:10;;;;;;;9.52;1.80;;;;;;;;;;4402829;32;20283;-58
2022/06/26 11:14:36;;;;;;;3.37;1.33;;;;;;;;;;4403031;32;20271;-58
2022/06/26 11:17:01;;;;;;;2.83;1.35;;;;;;;;;;4402981;32;20240;-58
2022/06/26 11:20:46;;;;;;;5.90;2.20;;;;;;;;;;4403157;32;20205;-58
2022/06/26 11:22:18;;;;;;;4.85;1.70;;;;;;;;;;4403617;32;20230;-59
2022/06/26 11:24:52;;;;;;;3.10;1.27;;;;;;;;;;4405728;32;20221;-58
2022/06/26 11:27:25;;;;;;;3.83;1.20;;;;;;;;;;4406284;32;20640;-59
2022/06/26 11:29:53;;;;;;;4.43;1.95;;;;;;;;;;4406850;32;20296;-59
2022/06/26 11:32:23;;;;;;;6.50;1.62;;;;;;;;;;4406716;32;20229;-57
2022/06/26 11:34:50;;;;;;;6.40;1.85;;;;;;;;;;4405960;32;20542;-59
2022/06/26 11:37:15;;;;;;;1.35;1.25;;;;;;;;;;4406162;32;20585;-59
2022/06/26 11:39:42;;;;;;;2.40;1.30;;;;;;;;;;4407116;32;20210;-59
2022/06/26 11:42:21;;;;;;;2.65;1.45;;;;;;;;;;4416292;32;20280;-60
2022/06/26 11:44:52;;;;;;;4.43;1.80;;;;;;;;;;4401145;32;20221;-59
2022/06/26 11:47:19;;;;;;;2.10;1.30;;;;;;;;;;4394350;32;20263;-59
2022/06/26 11:49:45;;;;;;;2.00;1.40;;;;;;;;;;4405172;32;20404;-59
2022/06/26 11:52:11;;;;;;;1.80;1.27;;;;;;;;;;4404738;32;20737;-59
2022/06/26 11:54:36;;;;;;;4.32;1.50;;;;;;;;;;4404319;32;20331;-58
2022/06/26 11:57:09;;;;;;;2.47;1.25;;;;;;;;;;4398534;32;20676;-59
2022/06/26 11:59:42;;;;;;;2.10;1.27;;;;;;;;;;4406489;32;20273;-59
2022/06/26 12:02:21;;;;;;;4.00;1.83;;;;;;;;;;4407143;32;20238;-59
2022/06/26 12:04:58;;;;;;;2.60;1.45;;;;;;;;;;4404052;32;20713;-59
2022/06/26 12:07:23;;;;;;;3.12;1.67;;;;;;;;;;4403035;32;20233;-59
2022/06/26 12:09:49;;;;;;;8.80;2.45;;;;;;;;;;4404288;32;20593;-59
2022/06/26 12:12:15;;;;;;;6.00;1.45;;;;;;;;;;4404038;32;20245;-60
2022/06/26 12:14:50;;;;;;;3.58;1.83;;;;;;;;;;4405117;32;20284;-60
2022/06/26 12:17:21;;;;;;;6.12;1.80;;;;;;;;;;4405675;32;20539;-60
2022/06/26 12:19:47;;;;;;;5.57;1.70;;;;;;;;;;4406002;32;20241;-60
2022/06/26 12:22:12;;;;;;;3.25;1.90;;;;;;;;;;4406060;32;20272;-60
2022/06/26 12:24:51;;;;;;;4.50;1.73;;;;;;;;;;4406653;32;20221;-61
2022/06/26 12:27:16;;;;;;;3.87;1.50;;;;;;;;;;4406711;32;20246;-59
2022/06/26 12:29:42;;;;;;;4.00;2.12;;;;;;;;;;4404283;32;20216;-59
2022/06/26 12:32:07;;;;;;;6.22;1.58;;;;;;;;;;4404940;32;20547;-60
2022/06/26 12:34:33;;;;;;;11.20;2.50;;;;;;;;;;4405948;32;20607;-60
2022/06/26 12:36:58;;;;;;;4.15;2.15;;;;;;;;;;4405888;32;20249;-59
2022/06/26 12:39:24;;;;;;;3.72;1.60;;;;;;;;;;4404910;32;20723;-59
2022/06/26 12:41:49;;;;;;;6.00;1.37;;;;;;;;;;4406105;32;20272;-59
2022/06/26 12:44:15;;;;;;;4.95;1.60;;;;;;;;;;4405429;32;20708;-59
2022/06/26 12:46:40;;;;;;;14.30;2.28;;;;;;;;;;4404553;32;20747;-59
2022/06/26 12:49:06;;;;;;;10.93;2.03;;;;;;;;;;4405865;32;20249;-59
2022/06/26 12:51:32;;;;;;;3.35;1.80;;;;;;;;;;4405633;32;20283;-59
2022/06/26 12:53:58;;;;;;;2.90;1.40;;;;;;;;;;4405628;32;20218;-60
2022/06/26 12:56:24;;;;;;;12.13;2.10;;;;;;;;;;4405479;32;20309;-59
2022/06/26 12:58:50;;;;;;;6.22;2.03;;;;;;;;;;4405092;32;20661;-59
2022/06/26 13:01:15;;;;;;;5.28;1.60;;;;;;;;;;4405557;32;20594;-59
2022/06/26 13:03:41;;;;;;;8.70;2.17;;;;;;;;;;4406362;32;20277;-59
2022/06/26 13:06:06;;;;;;;4.12;1.90;;;;;;;;;;4405634;32;20201;-59
2022/06/26 13:08:33;;;;;;;4.40;1.70;;;;;;;;;;4404984;32;20228;-59
2022/06/26 13:11:44;;;;;;;5.75;1.73;;;;;;;;;;4405167;32;20226;-60
2022/06/26 13:13:44;;;;;;;7.07;1.27;;;;;;;;;;4402208;32;20272;-60
2022/06/26 13:16:10;;;;;;;6.15;1.70;;;;;;;;;;4406087;32;20774;-59
2022/06/26 13:18:36;;;;;;;2.65;1.77;;;;;;;;;;4417153;32;20221;-60
2022/06/26 13:21:02;;;;;;;2.90;1.60;;;;;;;;;;4405418;32;20232;-59
2022/06/26 13:23:28;;;;;;;4.03;1.65;;;;;;;;;;4405430;32;20206;-59
2022/06/26 13:25:53;;;;;;;4.43;1.55;;;;;;;;;;4405337;32;20213;-60
2022/06/26 13:28:19;;;;;;;2.83;1.50;;;;;;;;;;4405510;32;20228;-60
2022/06/26 13:30:45;;;;;;;5.57;2.20;;;;;;;;;;4405060;32;20333;-60
2022/06/26 13:33:10;;;;;;;6.05;1.58;;;;;;;;;;4402340;32;20704;-60
2022/06/26 13:35:36;;;;;;;12.88;2.17;;;;;;;;;;4398718;32;20225;-60
2022/06/26 13:38:01;;;;;;;3.80;1.40;;;;;;;;;;4402360;32;20224;-60
2022/06/26 13:40:27;;;;;;;3.75;1.40;;;;;;;;;;4404799;32;20267;-60
2022/06/26 13:42:52;;;;;;;2.70;1.30;;;;;;;;;;4392648;32;20354;-60
2022/06/26 13:45:18;;;;;;;4.45;1.35;;;;;;;;;;4396954;32;20221;-60
2022/06/26 13:47:43;;;;;;;2.40;1.45;;;;;;;;;;4404956;32;20256;-60
2022/06/26 13:50:12;;;;;;;2.35;1.67;;;;;;;;;;4399810;32;20242;-60
2022/06/26 13:52:38;;;;;;;5.72;2.25;;;;;;;;;;4390121;32;20306;-61
2022/06/26 13:55:08;;;;;;;4.82;1.77;;;;;;;;;;4389896;32;20209;-60
2022/06/26 13:57:35;;;;;;;16.35;1.80;;;;;;;;;;4394921;32;20257;-60
2022/06/26 14:00:01;;;;;;;2.75;1.37;;;;;;;;;;4389044;32;20248;-61
2022/06/26 14:02:26;;;;;;;4.40;1.30;;;;;;;;;;4389899;32;20237;-60
2022/06/26 14:04:52;;;;;;;4.87;1.80;;;;;;;;;;4389737;32;20401;-60
2022/06/26 14:07:17;;;;;;;4.65;1.50;;;;;;;;;;4395029;32;20799;-60
2022/06/26 14:09:43;;;;;;;2.90;1.60;;;;;;;;;;4404497;32;20213;-60
2022/06/26 14:12:08;;;;;;;6.03;1.60;;;;;;;;;;4403334;32;20238;-60
2022/06/26 14:14:34;;;;;;;3.37;1.50;;;;;;;;;;4404193;32;20284;-59
2022/06/26 14:17:00;;;;;;;8.13;1.40;;;;;;;;;;4403927;32;20641;-60
2022/06/26 14:19:25;;;;;;;6.90;1.62;;;;;;;;;;4402907;32;20210;-60
2022/06/26 14:27:19;;;;;;;3.95;1.80;;;;;;;;;;4404260;32;20601;-60
2022/06/26 14:29:47;;;;;;;4.93;1.80;;;;;;;;;;4403809;32;20210;-61
2022/06/26 14:32:13;;;;;;;9.90;1.90;;;;;;;;;;4403001;32;20245;-60
2022/06/26 14:34:38;;;;;;;5.18;1.95;;;;;;;;;;4404040;32;20346;-60
2022/06/26 14:37:04;;;;;;;12.27;1.17;;;;;;;;;;4403752;32;20821;-60
2022/06/26 14:39:29;;;;;;;13.52;2.62;;;;;;;;;;4404536;32;20206;-60
2022/06/26 14:41:56;;;;;;;7.10;1.70;;;;;;;;;;4395542;32;20238;-60
2022/06/26 14:44:21;;;;;;;4.70;1.70;;;;;;;;;;4388543;32;20240;-60
2022/06/26 14:46:47;;;;;;;8.48;2.20;;;;;;;;;;4389204;32;20226;-60
2022/06/26 14:49:12;;;;;;;4.82;2.00;;;;;;;;;;4389051;32;20222;-60
2022/06/26 14:51:38;;;;;;;3.80;1.73;;;;;;;;;;4388771;32;20263;-60
2022/06/26 14:54:03;;;;;;;9.10;1.85;;;;;;;;;;4388918;32;20256;-60
2022/06/26 14:56:35;;;;;;;3.65;1.58;;;;;;;;;;4393531;32;20550;-60
2022/06/26 14:59:00;;;;;;;9.52;1.67;;;;;;;;;;4403388;32;20281;-61